createdAt,value
2023-03-12T00:00:08.804Z,17.85
2023-03-12T00:02:36.107Z,18.10
2023-03-12T00:05:03.725Z,18.92
2023-03-12T00:07:30.707Z,18.30
2023-03-12T00:09:57.745Z,18.65
2023-03-12T00:12:24.751Z,18.10
2023-03-12T00:14:51.692Z,18.20
2023-03-12T00:17:18.641Z,18.83
2023-03-12T00:19:45.649Z,19.25
2023-03-12T00:22:12.595Z,18.80
2023-03-12T00:24:39.594Z,18.63
2023-03-12T00:27:07.570Z,19.00
2023-03-12T00:29:34.559Z,18.75
2023-03-12T00:32:01.786Z,19.33
2023-03-12T00:34:28.763Z,18.23
2023-03-12T00:36:55.761Z,17.45
2023-03-12T00:39:22.692Z,18.20
2023-03-12T00:41:49.690Z,17.83
2023-03-12T00:44:16.645Z,17.02
2023-03-12T00:46:43.738Z,16.75
2023-03-12T00:49:11.915Z,17.55
2023-03-12T00:51:39.067Z,17.08
2023-03-12T00:54:06.307Z,17.38
2023-03-12T00:56:33.342Z,17.77
2023-03-12T00:59:00.409Z,16.83
2023-03-12T01:01:27.868Z,17.50
2023-03-12T01:03:55.777Z,17.25
2023-03-12T01:06:22.788Z,17.33
2023-03-12T01:08:49.892Z,17.30
2023-03-12T01:11:19.938Z,16.85
2023-03-12T01:13:47.283Z,16.85
2023-03-12T01:16:14.391Z,17.15
2023-03-12T01:18:41.819Z,17.38
2023-03-12T01:21:08.930Z,17.73
2023-03-12T01:23:35.891Z,17.15
2023-03-12T01:26:09.064Z,17.30
2023-03-12T01:28:36.046Z,17.52
2023-03-12T01:31:11.232Z,19.25
2023-03-12T01:33:38.399Z,19.80
2023-03-12T01:36:06.567Z,19.33
2023-03-12T01:38:33.606Z,19.30
2023-03-12T01:41:00.543Z,18.80
2023-03-12T01:43:32.157Z,19.75
2023-03-12T01:46:05.422Z,20.17
2023-03-12T01:48:45.083Z,21.70
2023-03-12T01:51:15.098Z,19.58
2023-03-12T01:53:45.440Z,18.70
2023-03-12T01:56:13.624Z,17.38
2023-03-12T01:58:45.509Z,17.48
2023-03-12T02:01:14.944Z,17.10
2023-03-12T02:03:42.441Z,17.00
2023-03-12T02:06:13.883Z,17.48
2023-03-12T02:08:44.313Z,17.25
2023-03-12T02:11:11.348Z,17.70
2023-03-12T02:13:38.368Z,17.33
2023-03-12T02:16:05.900Z,17.88
2023-03-12T02:18:35.062Z,18.35
2023-03-12T02:21:15.946Z,17.70
2023-03-12T02:24:25.368Z,17.23
2023-03-12T02:26:52.430Z,17.35
2023-03-12T02:29:19.647Z,17.15
2023-03-12T02:31:54.482Z,17.42
2023-03-12T02:34:21.643Z,17.40
2023-03-12T02:36:49.002Z,17.00
2023-03-12T02:39:16.368Z,17.05
2023-03-12T02:41:46.473Z,17.52
2023-03-12T02:44:25.692Z,17.00
2023-03-12T02:46:58.149Z,17.30
2023-03-12T02:49:28.742Z,16.42
2023-03-12T02:51:55.857Z,16.40
2023-03-12T02:54:23.364Z,16.80
2023-03-12T02:56:51.098Z,16.83
2023-03-12T02:59:20.823Z,16.60
2023-03-12T03:01:48.081Z,16.05
2023-03-12T03:04:15.171Z,15.88
2023-03-12T03:06:43.857Z,16.20
2023-03-12T03:09:10.934Z,15.43
2023-03-12T03:11:37.867Z,15.52
2023-03-12T03:14:06.993Z,15.65
2023-03-12T03:16:34.472Z,15.80
2023-03-12T03:19:01.523Z,15.80
2023-03-12T03:21:28.624Z,15.82
2023-03-12T03:23:55.635Z,16.15
2023-03-12T03:26:24.123Z,15.98
2023-03-12T03:28:51.433Z,16.23
2023-03-12T03:31:18.720Z,16.15
2023-03-12T03:33:45.963Z,16.20
2023-03-12T03:36:16.961Z,16.00
2023-03-12T03:38:49.201Z,15.82
2023-03-12T03:41:20.239Z,15.88
2023-03-12T03:43:47.674Z,15.77
2023-03-12T03:46:15.612Z,15.40
2023-03-12T03:48:42.669Z,16.30
2023-03-12T03:51:11.974Z,15.68
2023-03-12T03:53:39.149Z,15.57
2023-03-12T03:56:11.473Z,16.27
2023-03-12T03:58:38.503Z,16.25
2023-03-12T04:01:06.308Z,15.77
2023-03-12T04:03:34.180Z,15.85
2023-03-12T04:06:03.415Z,15.77
2023-03-12T04:08:33.005Z,15.75
2023-03-12T04:10:59.948Z,16.10
2023-03-12T04:13:26.918Z,15.68
2023-03-12T04:15:54.259Z,15.57
2023-03-12T04:18:21.574Z,15.77
2023-03-12T04:20:48.725Z,15.65
2023-03-12T04:23:15.735Z,15.18
2023-03-12T04:25:43.085Z,15.38
2023-03-12T04:28:10.154Z,15.43
2023-03-12T04:30:38.417Z,15.70
2023-03-12T04:33:06.484Z,16.10
2023-03-12T04:35:33.820Z,16.05
2023-03-12T04:38:01.974Z,15.93
2023-03-12T04:40:29.102Z,16.30
2023-03-12T04:42:56.104Z,16.17
2023-03-12T04:45:23.086Z,15.75
2023-03-12T04:47:50.131Z,16.23
2023-03-12T04:50:17.357Z,15.95
2023-03-12T04:52:44.489Z,16.13
2023-03-12T04:55:11.430Z,16.33
2023-03-12T04:57:38.398Z,15.93
2023-03-12T05:00:11.020Z,15.90
2023-03-12T05:02:38.289Z,15.95
2023-03-12T05:05:05.866Z,16.60
2023-03-12T05:07:32.769Z,16.55
2023-03-12T05:09:59.888Z,16.63
2023-03-12T05:12:26.921Z,16.63
2023-03-12T05:14:53.846Z,16.23
2023-03-12T05:17:21.181Z,16.45
2023-03-12T05:19:48.206Z,16.23
2023-03-12T05:22:15.179Z,16.20
2023-03-12T05:24:42.149Z,16.40
2023-03-12T05:27:09.113Z,15.80
2023-03-12T05:29:36.145Z,16.23
2023-03-12T05:32:03.567Z,16.13
2023-03-12T05:34:31.865Z,16.35
2023-03-12T05:36:59.284Z,16.42
2023-03-12T05:39:27.029Z,16.35
2023-03-12T05:41:57.015Z,17.10
2023-03-12T05:44:25.310Z,17.05
2023-03-12T05:46:53.550Z,16.40
2023-03-12T05:49:21.504Z,16.10
2023-03-12T05:51:49.686Z,16.27
2023-03-12T05:54:17.648Z,16.30
2023-03-12T05:56:44.761Z,15.48
2023-03-12T05:59:11.808Z,17.55
2023-03-12T06:01:39.606Z,21.30
2023-03-12T06:04:06.749Z,16.20
2023-03-12T06:06:36.184Z,16.05
2023-03-12T06:09:05.163Z,15.75
2023-03-12T06:11:34.322Z,15.30
2023-03-12T06:14:01.355Z,15.18
2023-03-12T06:16:29.850Z,15.77
2023-03-12T06:19:02.090Z,15.88
2023-03-12T06:21:32.140Z,15.90
2023-03-12T06:23:59.744Z,15.40
2023-03-12T06:26:27.949Z,16.10
2023-03-12T06:28:55.334Z,15.45
2023-03-12T06:31:22.857Z,15.80
2023-03-12T06:33:50.018Z,15.50
2023-03-12T06:36:17.270Z,15.55
2023-03-12T06:38:44.318Z,16.00
2023-03-12T06:41:13.751Z,15.95
2023-03-12T06:43:41.874Z,15.50
2023-03-12T06:46:11.514Z,15.98
2023-03-12T06:48:41.404Z,16.02
2023-03-12T06:51:13.425Z,16.10
2023-03-12T06:53:42.512Z,15.70
2023-03-12T06:56:10.638Z,15.55
2023-03-12T06:58:37.915Z,15.63
2023-03-12T07:01:05.569Z,16.00
2023-03-12T07:03:32.638Z,15.82
2023-03-12T07:06:00.060Z,15.80
2023-03-12T07:08:31.323Z,16.00
2023-03-12T07:11:01.795Z,15.80
2023-03-12T07:13:31.204Z,15.90
2023-03-12T07:15:58.367Z,16.25
2023-03-12T07:18:25.393Z,16.85
2023-03-12T07:20:52.806Z,16.38
2023-03-12T07:23:20.583Z,16.05
2023-03-12T07:25:48.086Z,16.50
2023-03-12T07:28:16.624Z,16.67
2023-03-12T07:30:50.228Z,16.13
2023-03-12T07:33:20.518Z,15.77
2023-03-12T07:35:51.269Z,16.55
2023-03-12T07:38:19.236Z,17.45
2023-03-12T07:40:54.148Z,17.77
2023-03-12T07:43:22.088Z,21.13
2023-03-12T07:45:49.675Z,18.05
2023-03-12T07:48:19.609Z,18.00
2023-03-12T07:50:47.376Z,18.10
2023-03-12T07:53:14.483Z,18.08
2023-03-12T07:55:46.148Z,19.23
2023-03-12T07:58:14.154Z,19.05
2023-03-12T08:00:41.346Z,18.27
2023-03-12T08:03:08.978Z,18.27
2023-03-12T08:05:36.618Z,18.50
2023-03-12T08:08:03.882Z,19.75
2023-03-12T08:10:31.126Z,18.52
2023-03-12T08:12:58.233Z,22.05
2023-03-12T08:15:25.584Z,19.10
2023-03-12T08:17:52.693Z,19.15
2023-03-12T08:20:19.911Z,19.52
2023-03-12T08:22:46.932Z,18.95
2023-03-12T08:25:14.118Z,21.38
2023-03-12T08:27:41.404Z,22.55
2023-03-12T08:30:09.190Z,21.15
2023-03-12T08:33:21.773Z,19.75
2023-03-12T08:35:51.047Z,19.42
2023-03-12T08:38:18.739Z,20.52
2023-03-12T08:40:46.024Z,20.55
2023-03-12T08:43:13.329Z,20.05
2023-03-12T08:45:40.496Z,19.38
2023-03-12T08:48:07.990Z,19.48
2023-03-12T08:50:35.107Z,19.40
2023-03-12T08:53:02.219Z,19.67
2023-03-12T08:55:35.292Z,20.35
2023-03-12T08:58:07.080Z,19.60
2023-03-12T09:00:34.614Z,20.73
2023-03-12T09:03:04.094Z,21.50
2023-03-12T09:05:31.373Z,20.80
2023-03-12T09:07:58.925Z,21.52
2023-03-12T09:10:30.284Z,21.40
2023-03-12T09:12:57.951Z,21.85
2023-03-12T09:15:25.147Z,21.52
2023-03-12T09:17:52.262Z,22.00
2023-03-12T09:20:19.403Z,22.52
2023-03-12T09:22:46.441Z,23.48
2023-03-12T09:25:13.925Z,23.27
2023-03-12T09:27:43.820Z,23.25
2023-03-12T09:30:13.982Z,23.77
2023-03-12T09:32:41.567Z,23.58
2023-03-12T09:35:09.553Z,25.80
2023-03-12T09:37:36.879Z,25.70
2023-03-12T09:40:10.635Z,25.52
2023-03-12T09:42:49.763Z,26.42
2023-03-12T09:45:28.396Z,26.77
2023-03-12T09:48:04.368Z,26.25
2023-03-12T09:50:34.821Z,26.70
2023-03-12T09:53:12.085Z,26.08
2023-03-12T09:55:42.456Z,25.48
2023-03-12T09:58:40.331Z,25.40
2023-03-12T10:01:13.600Z,26.45
2023-03-12T10:04:08.019Z,27.85
2023-03-12T10:07:18.464Z,27.63
2023-03-12T10:10:11.326Z,27.75
2023-03-12T10:13:12.740Z,27.30
2023-03-12T10:16:09.476Z,25.73
2023-03-12T10:18:39.475Z,26.50
2023-03-12T10:22:03.895Z,26.35
2023-03-12T10:24:56.020Z,26.92
2023-03-12T10:27:28.038Z,27.02
2023-03-12T10:29:56.318Z,27.13
2023-03-12T10:32:51.974Z,26.67
2023-03-12T10:35:22.616Z,28.40
2023-03-12T10:37:57.184Z,26.55
2023-03-12T10:40:27.456Z,26.40
2023-03-12T10:42:54.712Z,25.92
2023-03-12T10:45:57.379Z,25.67
2023-03-12T10:48:26.420Z,25.35
2023-03-12T10:51:05.382Z,25.25
2023-03-12T10:53:48.573Z,25.63
2023-03-12T10:56:18.389Z,27.27
2023-03-12T10:58:51.717Z,26.10
2023-03-12T11:01:30.691Z,24.92
2023-03-12T11:04:15.750Z,24.98
2023-03-12T11:06:42.747Z,24.08
2023-03-12T11:09:17.303Z,25.10
2023-03-12T11:11:49.461Z,24.95
2023-03-12T11:14:22.812Z,25.17
2023-03-12T11:16:51.274Z,25.50
2023-03-12T11:19:35.320Z,25.08
2023-03-12T11:22:08.269Z,25.67
2023-03-12T11:24:35.846Z,24.95
2023-03-12T11:27:07.608Z,26.17
2023-03-12T11:29:47.191Z,27.30
2023-03-12T11:32:37.509Z,27.35
2023-03-12T11:35:10.859Z,28.33
2023-03-12T11:38:01.135Z,28.00
2023-03-12T11:41:10.344Z,29.58
2023-03-12T11:43:55.337Z,29.35
2023-03-12T11:46:32.719Z,29.42
2023-03-12T11:49:37.286Z,30.50
2023-03-12T11:52:20.601Z,31.25
2023-03-12T11:55:25.713Z,31.33
2023-03-12T11:58:31.682Z,31.48
2023-03-12T12:01:18.759Z,31.92
2023-03-12T12:04:13.310Z,30.77
2023-03-12T12:07:00.229Z,32.13
2023-03-12T12:09:27.168Z,31.55
2023-03-12T12:11:54.727Z,32.22
2023-03-12T12:14:58.156Z,33.00
2023-03-12T12:17:47.406Z,33.63
2023-03-12T12:20:34.191Z,33.42
2023-03-12T12:23:39.396Z,33.22
2023-03-12T12:26:12.431Z,32.33
2023-03-12T12:29:02.618Z,31.77
2023-03-12T12:31:37.419Z,31.45
2023-03-12T12:34:19.450Z,30.65
2023-03-12T12:36:56.114Z,30.75
2023-03-12T12:39:40.352Z,31.65
2023-03-12T12:42:13.447Z,30.88
2023-03-12T12:44:53.442Z,30.60
2023-03-12T12:47:30.232Z,31.20
2023-03-12T12:49:59.348Z,31.35
2023-03-12T12:52:27.692Z,32.22
2023-03-12T12:55:19.684Z,32.13
2023-03-12T12:57:54.937Z,32.28
2023-03-12T13:00:51.174Z,32.35
2023-03-12T13:03:21.931Z,30.33
2023-03-12T13:05:54.923Z,30.10
2023-03-12T13:08:34.295Z,30.50
2023-03-12T13:11:18.450Z,30.05
2023-03-12T13:13:51.320Z,28.42
2023-03-12T13:16:30.143Z,27.25
2023-03-12T13:19:13.721Z,27.15
2023-03-12T13:21:47.358Z,26.87
2023-03-12T13:24:33.302Z,27.08
2023-03-12T13:27:19.220Z,26.35
2023-03-12T13:29:46.493Z,26.90
2023-03-12T13:32:36.428Z,30.55
2023-03-12T13:35:18.499Z,28.75
2023-03-12T13:37:51.132Z,28.23
2023-03-12T13:40:30.157Z,24.40
2023-03-12T13:43:11.932Z,26.25
2023-03-12T13:45:47.898Z,25.05
2023-03-12T13:48:19.483Z,25.17
2023-03-12T13:50:59.331Z,24.38
2023-03-12T13:53:32.700Z,23.77
2023-03-12T13:56:14.098Z,26.45
2023-03-12T13:59:05.999Z,25.60
2023-03-12T14:01:41.485Z,25.63
2023-03-12T14:04:14.713Z,25.83
2023-03-12T14:07:02.557Z,25.15
2023-03-12T14:09:53.776Z,24.63
2023-03-12T14:12:26.771Z,23.70
2023-03-12T14:14:59.600Z,22.27
2023-03-12T14:17:33.007Z,21.08
2023-03-12T14:20:10.633Z,22.63
2023-03-12T14:22:39.689Z,21.48
2023-03-12T14:25:37.359Z,21.83
2023-03-12T14:28:11.707Z,21.75
2023-03-12T14:30:44.883Z,21.15
2023-03-12T14:33:14.650Z,20.75
2023-03-12T14:36:00.907Z,22.45
2023-03-12T14:38:46.231Z,22.02
2023-03-12T14:41:34.146Z,29.95
2023-03-12T14:44:07.360Z,30.95
2023-03-12T14:46:34.543Z,23.30
2023-03-12T14:49:01.605Z,22.05
2023-03-12T14:51:31.174Z,22.40
2023-03-12T14:54:02.705Z,22.95
2023-03-12T14:56:34.879Z,23.23
2023-03-12T14:59:26.587Z,22.25
2023-03-12T15:02:02.165Z,22.13
2023-03-12T15:04:30.755Z,24.73
2023-03-12T15:07:01.699Z,24.48
2023-03-12T15:09:31.410Z,23.60
2023-03-12T15:12:02.711Z,24.30
2023-03-12T15:14:35.147Z,23.75
2023-03-12T15:17:05.771Z,24.95
2023-03-12T15:19:42.185Z,25.80
2023-03-12T15:22:17.124Z,25.20
2023-03-12T15:24:44.581Z,24.10
2023-03-12T15:27:34.779Z,22.75
2023-03-12T15:30:02.479Z,22.98
2023-03-12T15:32:31.950Z,21.25
2023-03-12T15:34:59.837Z,22.13
2023-03-12T15:37:35.374Z,21.65
2023-03-12T15:40:23.745Z,21.35
2023-03-12T15:42:51.518Z,20.80
2023-03-12T15:45:39.223Z,21.70
2023-03-12T15:48:34.202Z,20.73
2023-03-12T15:51:01.453Z,19.73
2023-03-12T15:53:34.014Z,19.08
2023-03-12T15:56:21.646Z,18.42
2023-03-12T15:59:20.124Z,19.95
2023-03-12T16:01:49.578Z,16.77
2023-03-12T16:04:16.736Z,17.55
2023-03-12T16:06:47.136Z,17.98
2023-03-12T16:09:24.669Z,18.40
2023-03-12T16:11:53.720Z,19.10
2023-03-12T16:14:23.005Z,19.80
2023-03-12T16:16:51.379Z,20.35
2023-03-12T16:19:21.059Z,20.38
2023-03-12T16:21:48.739Z,21.98
2023-03-12T16:24:19.410Z,22.25
2023-03-12T16:26:58.761Z,21.50
2023-03-12T16:29:46.028Z,21.27
2023-03-12T16:32:16.321Z,21.15
2023-03-12T16:34:43.986Z,21.15
2023-03-12T16:37:12.328Z,21.27
2023-03-12T16:39:39.449Z,21.10
2023-03-12T16:42:14.365Z,21.55
2023-03-12T16:44:42.540Z,21.70
2023-03-12T16:47:13.694Z,21.67
2023-03-12T16:49:40.822Z,21.73
2023-03-12T16:52:21.970Z,21.95
2023-03-12T16:54:49.922Z,20.70
2023-03-12T16:57:32.720Z,21.17
2023-03-12T17:00:00.524Z,21.90
2023-03-12T17:02:29.888Z,20.92
2023-03-12T17:04:56.934Z,21.63
2023-03-12T17:07:23.910Z,21.40
2023-03-12T17:09:50.874Z,21.05
2023-03-12T17:12:32.876Z,21.95
2023-03-12T17:15:01.847Z,21.65
2023-03-12T17:17:28.900Z,22.20
2023-03-12T17:19:55.929Z,22.35
2023-03-12T17:22:22.894Z,21.55
2023-03-12T17:24:49.894Z,21.25
2023-03-12T17:27:16.909Z,21.10
2023-03-12T17:29:44.067Z,25.55
2023-03-12T17:32:11.242Z,25.80
2023-03-12T17:34:38.237Z,25.20
2023-03-12T17:37:05.178Z,24.08
2023-03-12T17:39:32.193Z,26.88
2023-03-12T17:41:59.156Z,26.48
2023-03-12T17:44:29.531Z,22.63
2023-03-12T17:46:59.715Z,22.13
2023-03-12T17:49:27.954Z,22.20
2023-03-12T17:51:55.274Z,21.20
2023-03-12T17:54:22.568Z,21.27
2023-03-12T17:56:49.659Z,20.38
2023-03-12T17:59:16.664Z,21.48
2023-03-12T18:01:43.648Z,21.52
2023-03-12T18:04:10.679Z,21.15
2023-03-12T18:06:37.599Z,20.85
2023-03-12T18:09:04.665Z,21.75
2023-03-12T18:11:31.635Z,20.30
2023-03-12T18:13:58.607Z,19.85
2023-03-12T18:16:25.698Z,23.95
2023-03-12T18:18:53.131Z,20.15
2023-03-12T18:21:20.295Z,19.23
2023-03-12T18:23:47.403Z,19.83
2023-03-12T18:26:14.518Z,20.40
2023-03-12T18:28:41.498Z,19.13
2023-03-12T18:31:08.962Z,19.30
2023-03-12T18:33:36.517Z,18.80
2023-03-12T18:36:04.345Z,18.70
2023-03-12T18:38:32.451Z,18.58
2023-03-12T18:41:10.813Z,18.70
2023-03-12T18:43:37.977Z,18.48
2023-03-12T18:46:05.593Z,18.25
2023-03-12T18:48:32.616Z,18.52
2023-03-12T18:50:59.513Z,19.63
2023-03-12T18:53:26.686Z,18.90
2023-03-12T18:55:55.408Z,18.88
2023-03-12T18:58:23.671Z,18.50
2023-03-12T19:00:58.527Z,18.55
2023-03-12T19:03:27.467Z,17.88
2023-03-12T19:06:05.919Z,18.02
2023-03-12T19:08:33.042Z,18.00
2023-03-12T19:11:00.592Z,18.00
2023-03-12T19:13:27.569Z,18.15
2023-03-12T19:15:59.703Z,18.00
2023-03-12T19:18:27.284Z,17.92
2023-03-12T19:20:54.557Z,18.10
2023-03-12T19:23:21.795Z,18.05
2023-03-12T19:25:48.864Z,18.10
2023-03-12T19:28:15.853Z,17.73
2023-03-12T19:30:42.821Z,17.83
2023-03-12T19:33:09.949Z,18.15
2023-03-12T19:35:41.029Z,18.15
2023-03-12T19:38:08.990Z,17.90
2023-03-12T19:40:36.193Z,18.38
2023-03-12T19:43:03.483Z,17.90
2023-03-12T19:45:30.597Z,18.08
2023-03-12T19:47:57.649Z,18.20
2023-03-12T19:50:24.685Z,18.17
2023-03-12T19:52:51.721Z,18.10
2023-03-12T19:55:18.695Z,18.60
2023-03-12T19:57:45.877Z,18.67
2023-03-12T20:00:13.179Z,18.45
2023-03-12T20:02:40.698Z,18.40
2023-03-12T20:05:08.977Z,18.50
2023-03-12T20:07:36.208Z,18.00
2023-03-12T20:10:03.637Z,17.70
2023-03-12T20:12:32.021Z,19.08
2023-03-12T20:14:59.013Z,18.10
2023-03-12T20:17:25.951Z,18.05
2023-03-12T20:19:53.232Z,18.17
2023-03-12T20:22:20.289Z,17.83
2023-03-12T20:24:47.233Z,17.90
2023-03-12T20:27:14.348Z,19.10
2023-03-12T20:29:43.525Z,19.95
2023-03-12T20:32:10.573Z,22.23
2023-03-12T20:34:37.750Z,19.13
2023-03-12T20:37:04.787Z,20.27
2023-03-12T20:39:31.760Z,23.15
2023-03-12T20:41:58.723Z,19.88
2023-03-12T20:44:25.742Z,19.50
2023-03-12T20:46:52.709Z,18.67
2023-03-12T20:49:19.698Z,17.95
2023-03-12T20:51:46.804Z,17.63
2023-03-12T20:54:13.777Z,18.27
2023-03-12T20:56:44.014Z,18.88
2023-03-12T20:59:12.576Z,18.70
2023-03-12T21:01:39.710Z,19.65
2023-03-12T21:04:06.755Z,18.33
2023-03-12T21:06:33.775Z,18.15
2023-03-12T21:09:00.816Z,17.77
2023-03-12T21:11:27.937Z,17.95
2023-03-12T21:13:55.120Z,17.80
2023-03-12T21:16:22.234Z,17.80
2023-03-12T21:18:49.280Z,17.70
2023-03-12T21:21:16.571Z,17.70
2023-03-12T21:23:43.628Z,18.35
2023-03-12T21:26:12.044Z,18.33
2023-03-12T21:28:39.033Z,17.85
2023-03-12T21:31:07.871Z,17.90
2023-03-12T21:33:35.192Z,18.27
2023-03-12T21:36:05.783Z,18.17
2023-03-12T21:38:34.448Z,17.90
2023-03-12T21:41:06.440Z,17.73
2023-03-12T21:43:33.446Z,17.77
2023-03-12T21:46:11.432Z,17.80
2023-03-12T21:48:39.428Z,17.70
2023-03-12T21:51:08.964Z,17.65
2023-03-12T21:53:36.794Z,18.70
2023-03-12T21:56:05.479Z,18.40
2023-03-12T21:58:33.595Z,18.05
2023-03-12T22:01:07.716Z,18.98
2023-03-12T22:03:35.261Z,18.02
2023-03-12T22:06:02.608Z,17.88
2023-03-12T22:08:29.660Z,18.10
2023-03-12T22:10:56.772Z,18.02
2023-03-12T22:13:23.937Z,18.60
2023-03-12T22:15:59.788Z,17.90
2023-03-12T22:18:27.830Z,18.33
2023-03-12T22:21:03.337Z,18.23
2023-03-12T22:23:31.038Z,18.52
2023-03-12T22:26:01.915Z,18.38
2023-03-12T22:28:29.158Z,18.02
2023-03-12T22:31:14.174Z,18.15
2023-03-12T22:33:42.412Z,18.02
2023-03-12T22:36:11.835Z,17.98
2023-03-12T22:38:39.947Z,18.75
2023-03-12T22:41:22.146Z,18.65
2023-03-12T22:43:50.587Z,18.60
2023-03-12T22:46:19.963Z,18.63
2023-03-12T22:48:48.907Z,17.95
2023-03-12T22:51:16.185Z,18.52
2023-03-12T22:53:43.259Z,19.00
2023-03-12T22:56:12.901Z,18.95
2023-03-12T22:58:40.324Z,18.73
2023-03-12T23:01:16.428Z,18.65
2023-03-12T23:03:44.747Z,18.33
2023-03-12T23:06:14.656Z,17.95
2023-03-12T23:08:41.770Z,18.20
2023-03-12T23:11:10.576Z,18.33
2023-03-12T23:13:40.457Z,18.13
2023-03-12T23:16:17.330Z,18.00
2023-03-12T23:18:44.871Z,18.48
2023-03-12T23:21:16.166Z,18.60
2023-03-12T23:23:44.258Z,18.90
2023-03-12T23:26:18.301Z,18.48
2023-03-12T23:31:16.115Z,18.27
2023-03-12T23:33:44.450Z,18.88
2023-03-12T23:36:17.713Z,18.95
2023-03-12T23:38:45.994Z,18.60
2023-03-12T23:41:19.537Z,18.80
2023-03-12T23:43:48.099Z,18.70
2023-03-12T23:46:19.345Z,18.52
2023-03-12T23:48:47.044Z,17.98
2023-03-12T23:51:24.483Z,18.67
2023-03-12T23:53:55.314Z,18.88
2023-03-12T23:56:24.411Z,18.63
2023-03-12T23:58:52.107Z,18.45
